Current Weather

San Miguel/Papalon

San Miguel/Papalon, El Salvador (MSSM)

Report from: Wednesday, April 24, 2024 11:50 AM CST
Current time: Wednesday, April 24, 2024 1:22 PM CST

Nearby weather – Weather history – Daily summaries
Weather forecast

Temperature37.0°C (98.6°F)
Heat index38.7°C (101.6°F)
Dew point18.0°C (64.4°F)
Winds 5 kts (2.6 m/s, 5.8 mph) East (100°)
Visibility6.2 mi. (10 km)
Clouds Scattered clouds 3,000 ft. (914 m)
Altimeter29.88 in.Hg (1012 mB)
Relative humidity33 %
Density altitude2,815 ft. (858 m)
Flight conditions Visual Meteorological Conditions
Raw dataMSSM 241750Z 10005KT 9999 SCT030 37/18 Q1011 A2988
An error has occurred. This application may no longer respond until reloaded. Reload 🗙